Flight Track Log - Related Links

Times and Time Zones

All times are in EDT time to prevent confusion due to time zone crossing. See the N53NW flight status page for this flight to view local times or setup timezone preferences in your user account.

Time Position Orientation Groundspeed Altitude Reporting Facility
EDT Latitude Longitude Course Direction KTS MPH feet Rate Location/Type
Fri 10:13:15 AM 41.2058 -83.5189 204° Southwest 347 399 36,100  Level Indianapolis Center
Fri 10:14:17 AM 41.1150 -83.5722 204° Southwest 354 407 36,800 677 Climbing Indianapolis Center
Fri 10:15:19 AM 41.0103 -83.6328 204° Southwest 365 420 37,500 629 Climbing Indianapolis Center
Fri 10:16:21 AM 40.9136 -83.6883 203° Southwest 378 435 38,100 581 Climbing Indianapolis Center
Fri 10:17:23 AM 40.8144 -83.7458 204° Southwest 387 445 38,700 576 Climbing Indianapolis Center
Fri 10:18:26 AM 40.7153 -83.8028 204° Southwest 390 449 39,300 624 Climbing Indianapolis Center
Fri 10:19:28 AM 40.5925 -83.8717 203° Southwest 400 460 40,000 629 Climbing Indianapolis Center
Fri 10:20:30 AM 40.4908 -83.9294 203° Southwest 400 460 40,600 581 Climbing Indianapolis Center
Fri 10:21:32 AM 40.3883 -83.9867 203° Southwest 402 463 41,200 532 Climbing Indianapolis Center
Fri 10:22:34 AM 40.2844 -84.0428 202° Southwest 403 464 41,700 532 Climbing Indianapolis Center
Fri 10:23:36 AM 40.1697 -84.0631 188° South 419 482 42,300 581 Climbing Indianapolis Center
Fri 10:24:38 AM 40.0336 -84.0864 187° South 415 478 42,900 339 Climbing Indianapolis Center
Fri 10:25:40 AM 39.9172 -84.1056 191° South 422 486 43,000 48 Climbing Indianapolis Center
Fri 10:26:42 AM 39.8000 -84.1256 187° South 426 490 43,000  Level Indianapolis Center
Fri 10:27:44 AM 39.6836 -84.1439 187° South 425 489 43,000  Level Indianapolis Center
Fri 10:28:46 AM 39.5692 -84.1628 187° South 420 483 43,000  Level Indianapolis Center
Fri 10:29:48 AM 39.4344 -84.1594 179° South 409 471 43,000  Level Indianapolis Center
Fri 10:30:50 AM 39.3211 -84.1514 177° South 411 473 43,000  Level Indianapolis Center
Fri 10:31:52 AM 39.2061 -84.1422 176° South 415 478 43,000  Level Indianapolis Center
Fri 10:32:54 AM 39.0903 -84.1333 177° South 419 482 43,000  Level Indianapolis Center
Fri 10:33:56 AM 38.9733 -84.1247 177° South 423 487 43,000  Level Indianapolis Center
Fri 10:34:58 AM 38.8561 -84.1161 177° South 423 487 43,000  Level Indianapolis Center
Fri 10:36:00 AM 38.7139 -84.1033 176° South 427 491 43,000  Level Indianapolis Center
Fri 10:37:02 AM 38.5933 -84.0961 177° South 423 487 43,000  Level Indianapolis Center
Fri 10:38:04 AM 38.4772 -84.0867 176° South 419 482 43,000  Level Indianapolis Center
Fri 10:39:06 AM 38.3628 -84.0792 177° South 412 474 43,000  Level Indianapolis Center
Fri 10:40:08 AM 38.2519 -84.0700 176° South 402 463 43,000  Level Indianapolis Center
Fri 10:41:10 AM 38.1403 -84.0619 177° South 404 465 43,000  Level Indianapolis Center
Fri 10:42:12 AM 38.0106 -84.0525 177° South 401 461 43,000  Level Indianapolis Center
Fri 10:43:14 AM 37.8992 -84.0447 177° South 403 464 43,000  Level Indianapolis Center
Fri 10:44:16 AM 37.7883 -84.0364 177° South 402 463 43,000  Level Indianapolis Center
Fri 10:45:18 AM 37.6775 -84.0264 176° South 400 460 43,000  Level Indianapolis Center
Fri 10:46:20 AM 37.5656 -84.0189 177° South 404 465 43,000  Level Indianapolis Center
Fri 10:47:22 AM 37.4361 -84.0081 176° South 401 461 43,000  Level Indianapolis Center
Fri 10:48:24 AM 37.3242 -84.0003 177° South 402 463 43,000  Level Indianapolis Center
Fri 10:49:26 AM 37.2125 -83.9919 177° South 404 465 43,000  Level Indianapolis Center
Fri 10:50:28 AM 37.1003 -83.9836 177° South 405 466 43,000  Level Indianapolis Center
Fri 10:51:30 AM 36.9881 -83.9744 176° South 405 466 43,000  Level Indianapolis Center
Fri 10:52:32 AM 36.8558 -83.9656 177° South 407 468 43,000  Level Indianapolis Center
Fri 10:53:34 AM 36.7433 -83.9567 176° South 406 467 43,000  Level Indianapolis Center
Fri 10:54:36 AM 36.6300 -83.9478 176° South 408 470 43,000  Level Indianapolis Center
Fri 10:55:38 AM 36.5164 -83.9400 177° South 407 468 43,000  Level Indianapolis Center
Fri 10:56:40 AM 36.3894 -83.9294 176° South 408 470 43,000  Level Indianapolis Center
Fri 10:57:42 AM 36.2753 -83.9211 177° South 408 470 43,000  Level Indianapolis Center
Fri 10:58:44 AM 36.1617 -83.9133 177° South 407 468 43,000  Level Indianapolis Center
Fri 10:59:33 AM 36.0667 -83.9078 177° South 405 466 43,000  Level Atlanta Center
Fri 11:00:33 AM 35.9539 -83.8978 176° South 405 466 43,000  Level Atlanta Center
Fri 11:01:33 AM 35.8453 -83.8747 170° South 405 466 43,000  Level Atlanta Center
Fri 11:02:33 AM 35.7347 -83.8392 165° South 405 466 43,000  Level Atlanta Center
Fri 11:03:33 AM 35.6242 -83.8011 164° South 412 474 43,000  Level Atlanta Center
Fri 11:04:33 AM 35.5178 -83.7683 166° South 412 474 43,000  Level Atlanta Center
Fri 11:05:33 AM 35.4111 -83.7306 164° South 407 468 43,000  Level Atlanta Center
Fri 11:06:33 AM 35.3025 -83.6953 165° South 407 468 43,000  Level Atlanta Center
Fri 11:07:33 AM 35.1939 -83.6625 166° South 407 468 43,000  Level Atlanta Center
Fri 11:08:33 AM 35.0875 -83.6250 164° South 407 468 43,000  Level Atlanta Center
Fri 11:09:33 AM 34.9789 -83.5900 165° South 401 461 43,000  Level Atlanta Center
Fri 11:10:33 AM 34.8931 -83.5603 164° South 401 461 43,000  Level Atlanta Center
Fri 11:11:33 AM 34.7742 -83.5228 165° South 395 455 43,000  Level Atlanta Center
Fri 11:12:33 AM 34.6528 -83.4808 164° South 403 464 43,000  Level Atlanta Center
Fri 11:13:33 AM 34.5442 -83.4436 164° South 403 464 43,000  Level Atlanta Center
Fri 11:14:33 AM 34.4333 -83.4092 166° South 408 470 43,000  Level Atlanta Center
Fri 11:15:33 AM 34.3247 -83.3772 166° South 408 470 43,000  Level Atlanta Center
Fri 11:16:33 AM 34.2158 -83.3406 164° South 408 470 43,000  Level Atlanta Center
Fri 11:17:33 AM 34.1050 -83.3061 166° South 408 470 43,000  Level Atlanta Center
Fri 11:18:33 AM 33.9942 -83.2722 166° South 414 476 43,000  Level Atlanta Center
Fri 11:19:33 AM 33.8833 -83.2356 165° South 414 476 43,000  Level Atlanta Center
Fri 11:20:33 AM 33.7853 -83.2064 166° South 414 476 43,000  Level Atlanta Center
Fri 11:21:33 AM 33.6742 -83.1700 165° South 414 476 43,000  Level Atlanta Center
Fri 11:22:33 AM 33.5675 -83.1364 165° South 407 468 43,000  Level Atlanta Center
Fri 11:23:33 AM 33.4589 -83.1025 165° South 412 474 43,000  Level Atlanta Center
Fri 11:24:33 AM 33.3478 -83.0664 165° South 407 468 43,000  Level Atlanta Center
Fri 11:25:33 AM 33.2264 -83.0306 166° South 407 468 43,000  Level Atlanta Center
Fri 11:26:33 AM 33.1178 -82.9997 167° South 407 468 43,000  Level Atlanta Center
Fri 11:27:33 AM 33.0089 -82.9636 164° South 412 474 43,000  Level Atlanta Center
Fri 11:28:33 AM 32.9042 -82.9303 165° South 407 468 43,000  Level Atlanta Center
Fri 11:30:18 AM 32.7136 -82.8728 166° South 415 478 43,000  Level Jacksonville Center
Fri 11:31:18 AM 32.6050 -82.8358 164° South 410 472 43,000  Level Jacksonville Center
Fri 11:32:18 AM 32.4964 -82.8014 165° South 410 472 43,000  Level Jacksonville Center
Fri 11:33:18 AM 32.4025 -82.7719 165° South 405 466 43,000  Level Jacksonville Center
Fri 11:34:18 AM 32.2939 -82.7378 165° South 400 460 43,000  Level Jacksonville Center
Fri 11:35:18 AM 32.1747 -82.7036 166° South 400 460 43,000  Level Jacksonville Center
Fri 11:36:18 AM 32.0642 -82.6694 165° South 400 460 43,000  Level Jacksonville Center
Fri 11:37:18 AM 31.9553 -82.6331 164° South 400 460 43,000  Level Jacksonville Center
Fri 11:38:18 AM 31.8489 -82.6014 166° South 400 460 43,000  Level Jacksonville Center
Fri 11:39:18 AM 31.7339 -82.5822 172° South 400 460 43,000  Level Jacksonville Center
Fri 11:40:18 AM 31.6211 -82.5656 173° South 405 466 43,000  Level Jacksonville Center
Fri 11:41:18 AM 31.5083 -82.5467 172° South 410 472 43,000  Level Jacksonville Center
Fri 11:42:18 AM 31.3978 -82.5300 173° South 410 472 43,000  Level Jacksonville Center
Fri 11:43:18 AM 31.2869 -82.5183 175° South 410 472 43,000  Level Jacksonville Center
Fri 11:44:18 AM 31.1719 -82.4992 172° South 410 472 43,000 -350 Level Jacksonville Center
Fri 11:45:18 AM 31.0614 -82.4828 173° South 410 472 42,300 -950 Descending Jacksonville Center
Fri 11:46:18 AM 30.9464 -82.4639 172° South 410 472 41,100 -1,150 Descending Jacksonville Center
Fri 11:47:18 AM 30.8336 -82.4475 173° South 410 472 40,000 -550 Descending Jacksonville Center
Fri 11:48:18 AM 30.7208 -82.4286 172° South 410 472 40,000  Level Jacksonville Center
Fri 11:49:18 AM 30.6081 -82.4147 174° South 410 472 40,000  Level Jacksonville Center
Fri 11:50:18 AM 30.4953 -82.3958 172° South 410 472 40,000 -150 Level Jacksonville Center
Fri 11:51:18 AM 30.3844 -82.3675 168° South 410 472 39,700 -800 Descending Jacksonville Center
Fri 11:52:18 AM 30.3089 -82.2911 139° Southeast 405 466 38,400 -1,700 Descending Jacksonville Center
Fri 11:53:18 AM 30.2333 -82.1978 133° Southeast 394 453 36,300 -1,700 Descending Jacksonville Center
Fri 11:54:18 AM 30.1369 -82.1336 150° Southeast 394 453 35,000 -900 Descending Jacksonville Center
Fri 11:55:18 AM 30.0242 -82.1200 174° South 391 450 34,500 -550 Descending Jacksonville Center
Fri 11:56:18 AM 29.9008 -82.1211 180° South 411 473 33,900 -1,550 Descending Jacksonville Center
Fri 11:57:18 AM 29.7839 -82.1147 177° South 424 488 31,400 -2,500 Descending Jacksonville Center
Fri 11:58:18 AM 29.6692 -82.1039 175° South 424 488 28,900 -2,350 Descending Jacksonville Center
Fri 11:59:18 AM 29.5522 -82.0975 177° South 424 488 26,700 -1,900 Descending Jacksonville Center
Fri 12:00:18 PM 29.4414 -82.0914 177° South 419 482 25,100 -1,600 Descending Jacksonville Center
Fri 12:01:18 PM 29.3286 -82.0850 177° South 413 475 23,500 -1,600 Descending Jacksonville Center
Fri 12:02:18 PM 29.2222 -82.0811 178° South 406 467 21,900 -1,600 Descending Jacksonville Center
Fri 12:03:18 PM 29.1158 -82.0772 178° South 391 450 20,300 -1,450 Descending Jacksonville Center
Fri 12:04:18 PM 29.0156 -82.0711 177° South 380 437 19,000 -1,250 Descending Jacksonville Center
Fri 12:05:18 PM 28.9069 -82.0625 176° South 368 423 17,800 -1,200 Descending Jacksonville Center
Fri 12:06:18 PM 28.8108 -82.0608 179° South 357 411 16,600 -1,184 Descending Jacksonville Center
Fri 12:07:50 PM 28.6667 -82.0500 176° South 339 390 14,800 -1,151 Descending Tampa TRACON
Fri 12:08:44 PM 28.5833 -82.0500 180° South 337 388 13,800 -1,158 Descending Tampa TRACON
Fri 12:09:44 PM 28.4833 -82.0500 180° South 339 390 12,600 -1,200 Descending Tampa TRACON
Fri 12:10:44 PM 28.4000 -82.0333 170° South 336 387 11,400 -800 Descending Tampa TRACON
Fri 12:11:44 PM 28.3000 -82.0333 180° South 318 366 11,000 -211 Descending Tampa TRACON
Fri 12:12:38 PM 28.2333 -82.0333 180° South 311 358 11,000  Level Tampa TRACON
Fri 12:13:44 PM 28.1333 -82.0167 172° South 315 362 11,000  Level Tampa TRACON
Fri 12:14:44 PM 28.0500 -82.0500 199° South 316 364 11,000 -350 Level Tampa TRACON
Fri 12:15:44 PM 27.9833 -82.1000 214° Southwest 314 361 10,300 -1,350 Descending Tampa TRACON
Fri 12:16:44 PM 27.9167 -82.1500 214° Southwest 271 312 8,300 -2,000 Descending Tampa TRACON
Fri 12:17:44 PM 27.8500 -82.2000 214° Southwest 258 297 6,300 -1,140 Descending Tampa TRACON
Fri 12:18:45 PM 27.8000 -82.2500 222° Southwest 238 274 6,000 -157 Descending Tampa TRACON
Fri 12:19:39 PM 27.7500 -82.2833 211° Southwest 262 302 6,000 -400 Level Tampa TRACON
Fri 12:20:45 PM 27.6833 -82.3500 222° Southwest 264 304 5,200 -952 Descending Tampa TRACON
Fri 12:21:45 PM 27.6167 -82.3833 204° Southwest 244 281 4,000 -632 Descending Tampa TRACON
Fri 12:22:39 PM 27.5667 -82.3833 180° South 220 253 4,000 -381 Level Tampa TRACON
Fri 12:23:51 PM 27.4833 -82.3833 180° South 258 297 3,200 -652 Descending Tampa TRACON
Fri 12:24:57 PM 27.4000 -82.3833 180° South 247 284 2,500 -368 Descending Tampa TRACON
Fri 12:25:45 PM 27.3667 -82.4167 222° Southwest 202 232 2,500 -389 Level Tampa TRACON
Fri 12:26:45 PM 27.3333 -82.4667 233° Southwest 174 200 1,800 -737 Descending Tampa TRACON
Fri 12:27:39 PM 27.3500 -82.5000 299° West 127 146 1,100 -700 Descending Tampa TRACON
Fri 12:28:45 PM 27.3833 -82.5333 318° Northwest 116 133 400 -636 Descending Tampa TRACON
Fri 12:30:00 PM 27.3833 -82.5500 222° Southwest  Level FlightAware Approximate

Login

Don't have an account? Register now (free) for customized features, flight alerts, and more!